Time;durP1;ratioP1;P1;durP2;ratioP2;P2;SDS_P1;SDS_P2;PMS_P1;PMS_P2;Temp;Humidity;BMP_temperature;BMP_pressure;BME280_temperature;BME280_humidity;BME280_pressure;Samples;Min_cycle;Max_cycle;Signal;HPM_P1;HPM_P2
2022/10/23 00:01:39;;;;;;;23.00;15.67;;;13.20;99.90;;;;;;5107842;28;20679;-73
2022/10/23 00:04:08;;;;;;;21.10;16.77;;;13.20;99.90;;;;;;5109207;28;20204;-71
2022/10/23 00:06:36;;;;;;;19.43;15.30;;;13.20;99.90;;;;;;5108699;28;20262;-72
2022/10/23 00:09:05;;;;;;;17.37;14.83;;;13.20;99.90;;;;;;5110357;28;20232;-72
2022/10/23 00:11:32;;;;;;;23.90;15.97;;;13.20;99.90;;;;;;5109557;28;20595;-73
2022/10/23 00:14:01;;;;;;;21.27;17.03;;;13.20;99.90;;;;;;5107332;28;20211;-71
2022/10/23 00:16:29;;;;;;;23.53;17.13;;;13.20;99.90;;;;;;5108172;28;20274;-72
2022/10/23 00:18:56;;;;;;;23.67;16.80;;;13.30;99.90;;;;;;5108698;28;20215;-71
2022/10/23 00:21:24;;;;;;;22.37;17.07;;;13.20;99.90;;;;;;5109467;28;20219;-73
2022/10/23 00:23:52;;;;;;;20.90;16.63;;;13.20;99.90;;;;;;5109716;28;20228;-72
2022/10/23 00:26:19;;;;;;;20.43;16.37;;;13.20;99.90;;;;;;5108616;28;20204;-72
2022/10/23 00:28:49;;;;;;;19.17;15.87;;;13.20;99.90;;;;;;5110081;28;20208;-72
2022/10/23 00:31:16;;;;;;;22.00;16.77;;;13.20;99.90;;;;;;5107904;28;20609;-72
2022/10/23 00:33:43;;;;;;;21.97;15.60;;;13.30;99.90;;;;;;5109370;28;20414;-72
2022/10/23 00:36:12;;;;;;;24.03;16.30;;;13.30;99.90;;;;;;5105340;28;20211;-72
2022/10/23 00:38:39;;;;;;;20.40;16.33;;;13.30;99.90;;;;;;5111254;28;20215;-72
2022/10/23 00:41:09;;;;;;;24.10;17.00;;;13.30;99.90;;;;;;5111780;28;20212;-72
2022/10/23 00:43:56;;;;;;;21.90;16.53;;;13.30;99.90;;;;;;5112616;28;20569;-73
2022/10/23 00:46:23;;;;;;;21.03;16.47;;;13.30;99.90;;;;;;5112607;28;20219;-73
2022/10/23 00:48:50;;;;;;;19.47;15.87;;;13.30;99.90;;;;;;5113374;27;20215;-72
2022/10/23 00:51:17;;;;;;;22.27;16.47;;;13.30;99.90;;;;;;5111457;28;20583;-72
2022/10/23 00:53:45;;;;;;;19.97;16.07;;;13.30;99.90;;;;;;5111898;28;20208;-72
2022/10/23 00:56:13;;;;;;;21.47;16.37;;;13.30;99.90;;;;;;5110367;28;20219;-72
2022/10/23 00:58:40;;;;;;;24.30;16.57;;;13.30;99.90;;;;;;5112953;28;20215;-72
2022/10/23 01:01:17;;;;;;;19.00;15.00;;;13.30;99.90;;;;;;5112503;28;20211;-72
2022/10/23 01:03:44;;;;;;;24.57;17.27;;;13.30;99.90;;;;;;5111793;28;20192;-72
2022/10/23 01:06:16;;;;;;;20.43;15.63;;;13.30;99.90;;;;;;5108713;28;20235;-73
2022/10/23 01:08:50;;;;;;;23.13;16.30;;;13.30;99.90;;;;;;5108474;28;20223;-72
2022/10/23 01:11:23;;;;;;;25.13;16.40;;;13.30;99.90;;;;;;5111896;28;20239;-72
2022/10/23 01:14:00;;;;;;;19.67;15.30;;;13.30;99.90;;;;;;5111651;28;20661;-72
2022/10/23 01:16:34;;;;;;;23.77;16.00;;;13.40;99.90;;;;;;5108863;28;20204;-73
2022/10/23 01:19:09;;;;;;;21.97;15.47;;;13.30;99.90;;;;;;5113668;28;20214;-72
2022/10/23 01:21:49;;;;;;;22.43;15.70;;;13.40;99.90;;;;;;5112492;27;20196;-72
2022/10/23 01:24:24;;;;;;;21.27;15.77;;;13.40;99.90;;;;;;5107500;28;20212;-72
2022/10/23 01:27:02;;;;;;;22.73;15.70;;;13.40;99.90;;;;;;5102040;28;20210;-72
2022/10/23 01:29:36;;;;;;;22.97;15.93;;;13.30;99.90;;;;;;5112242;28;20211;-71
2022/10/23 01:32:06;;;;;;;24.30;16.27;;;13.40;99.90;;;;;;5112951;27;20208;-72
2022/10/23 01:34:41;;;;;;;23.57;16.73;;;13.40;99.90;;;;;;5112475;28;20870;-73
2022/10/23 01:37:12;;;;;;;22.13;16.07;;;13.40;99.90;;;;;;5111751;28;20206;-72
2022/10/23 01:39:42;;;;;;;26.17;17.60;;;13.40;99.90;;;;;;5112214;28;20196;-72
2022/10/23 01:42:14;;;;;;;24.67;17.03;;;13.40;99.90;;;;;;5111248;28;20233;-72
2022/10/23 01:44:46;;;;;;;24.83;16.73;;;13.40;99.90;;;;;;5111897;28;20334;-72
2022/10/23 01:47:15;;;;;;;26.73;16.90;;;13.50;99.90;;;;;;5110667;28;20196;-72
2022/10/23 01:49:43;;;;;;;25.17;16.37;;;13.40;99.90;;;;;;5110708;28;20228;-71
2022/10/23 01:52:13;;;;;;;25.57;16.20;;;13.40;99.90;;;;;;5111558;28;20204;-73
2022/10/23 01:54:43;;;;;;;25.37;16.40;;;13.50;99.90;;;;;;5111078;28;20200;-71
2022/10/23 01:57:14;;;;;;;21.90;15.83;;;13.40;99.90;;;;;;5111574;28;20204;-72
2022/10/23 01:59:46;;;;;;;25.30;16.30;;;13.40;99.90;;;;;;5110139;28;20211;-73
2022/10/23 02:02:14;;;;;;;25.37;16.53;;;13.50;99.90;;;;;;5098398;28;20203;-72
2022/10/23 02:04:47;;;;;;;27.13;16.03;;;13.50;99.90;;;;;;5111035;28;20219;-72
2022/10/23 02:07:14;;;;;;;25.97;17.47;;;13.50;99.90;;;;;;5109420;28;20614;-72
2022/10/23 02:09:41;;;;;;;27.93;17.57;;;13.50;99.90;;;;;;5109883;28;20223;-71
2022/10/23 02:12:13;;;;;;;24.60;17.17;;;13.50;99.90;;;;;;5111811;28;20212;-71
2022/10/23 02:14:51;;;;;;;26.37;17.73;;;13.50;99.90;;;;;;5110456;28;20204;-71
2022/10/23 02:17:27;;;;;;;24.57;16.00;;;13.50;99.90;;;;;;5110428;28;20200;-73
2022/10/23 02:19:59;;;;;;;24.60;16.73;;;13.50;99.90;;;;;;5111182;28;20208;-74
2022/10/23 02:22:29;;;;;;;24.73;16.53;;;13.50;99.90;;;;;;5110042;28;20558;-72
2022/10/23 02:25:00;;;;;;;25.97;17.97;;;13.50;99.90;;;;;;5110908;28;20638;-71
2022/10/23 02:27:34;;;;;;;26.33;17.00;;;13.50;99.90;;;;;;5112298;28;20207;-71
2022/10/23 02:30:05;;;;;;;26.63;17.07;;;13.50;99.90;;;;;;5110270;28;20224;-72
2022/10/23 02:32:34;;;;;;;24.73;17.10;;;13.50;99.90;;;;;;5111674;28;20203;-72
2022/10/23 02:35:01;;;;;;;26.07;17.77;;;13.50;99.90;;;;;;5108764;28;20675;-73
2022/10/23 02:37:28;;;;;;;31.60;20.27;;;13.50;99.90;;;;;;5110579;28;20227;-72
2022/10/23 02:39:55;;;;;;;25.47;18.63;;;13.50;99.90;;;;;;5110834;28;20540;-72
2022/10/23 02:42:26;;;;;;;29.03;18.50;;;13.50;99.90;;;;;;5110650;28;20204;-71
2022/10/23 02:45:01;;;;;;;29.57;19.13;;;13.50;99.90;;;;;;5109816;28;20687;-72
2022/10/23 02:47:40;;;;;;;32.60;18.50;;;13.50;99.90;;;;;;5111248;28;20210;-72
2022/10/23 02:50:16;;;;;;;30.67;19.20;;;13.50;99.90;;;;;;5110683;28;20223;-73
2022/10/23 02:52:50;;;;;;;26.90;18.93;;;13.50;99.90;;;;;;5109115;28;20203;-72
2022/10/23 02:55:26;;;;;;;31.43;19.17;;;13.50;99.90;;;;;;5110337;28;20196;-72
2022/10/23 02:57:59;;;;;;;31.93;19.87;;;13.50;99.90;;;;;;5112398;28;20207;-71
2022/10/23 03:00:29;;;;;;;30.50;19.53;;;13.50;99.90;;;;;;5112208;28;20192;-73
2022/10/23 03:03:01;;;;;;;26.50;18.43;;;13.50;99.90;;;;;;5110834;28;20208;-73
2022/10/23 03:05:31;;;;;;;29.50;18.47;;;13.50;99.90;;;;;;5111205;28;20228;-73
2022/10/23 03:07:57;;;;;;;27.77;19.37;;;13.50;99.90;;;;;;5109467;28;20203;-71
2022/10/23 03:10:24;;;;;;;32.43;19.27;;;13.50;99.90;;;;;;5111082;28;20680;-71
2022/10/23 03:12:51;;;;;;;30.83;20.50;;;13.50;99.90;;;;;;5110845;28;20207;-72
2022/10/23 03:15:18;;;;;;;30.30;19.77;;;13.50;99.90;;;;;;5108399;28;20245;-73
2022/10/23 03:17:45;;;;;;;33.17;20.50;;;13.50;99.90;;;;;;5109109;28;20204;-72
2022/10/23 03:20:13;;;;;;;29.67;20.30;;;13.50;99.90;;;;;;5110937;28;20211;-72
2022/10/23 03:22:40;;;;;;;31.80;20.13;;;13.50;99.90;;;;;;5110885;28;20644;-72
2022/10/23 03:25:07;;;;;;;32.40;20.83;;;13.50;99.90;;;;;;5108729;28;20207;-72
2022/10/23 03:27:34;;;;;;;31.47;20.50;;;13.50;99.90;;;;;;5110028;28;20571;-72
2022/10/23 03:30:03;;;;;;;30.73;19.77;;;13.50;99.90;;;;;;5110670;28;20228;-72
2022/10/23 03:32:30;;;;;;;31.83;21.30;;;13.50;99.90;;;;;;5111766;28;20211;-72
2022/10/23 03:34:57;;;;;;;31.27;20.10;;;13.50;99.90;;;;;;5108204;28;20207;-72
2022/10/23 03:37:25;;;;;;;31.60;20.80;;;13.40;99.90;;;;;;5109964;28;20204;-72
2022/10/23 03:39:51;;;;;;;31.63;20.90;;;13.50;99.90;;;;;;5110796;28;20674;-73
2022/10/23 03:42:18;;;;;;;30.90;19.77;;;13.50;99.90;;;;;;5109545;28;20200;-72
2022/10/23 03:44:45;;;;;;;32.07;21.63;;;13.50;99.90;;;;;;5110262;28;20207;-72
2022/10/23 03:47:12;;;;;;;30.20;20.07;;;13.40;99.90;;;;;;5107566;28;20215;-72
2022/10/23 03:49:39;;;;;;;33.07;20.90;;;13.40;99.90;;;;;;5105779;28;20207;-72
2022/10/23 03:52:06;;;;;;;33.17;20.83;;;13.40;99.90;;;;;;5109747;28;20220;-73
2022/10/23 03:54:35;;;;;;;29.93;20.50;;;13.30;99.90;;;;;;5109413;28;20215;-72
2022/10/23 03:57:02;;;;;;;32.43;20.63;;;13.30;99.90;;;;;;5109733;28;20604;-72
2022/10/23 03:59:28;;;;;;;31.80;21.23;;;13.30;99.90;;;;;;5108692;28;20627;-73
2022/10/23 04:01:55;;;;;;;33.13;22.23;;;13.30;99.90;;;;;;5111130;28;20200;-71
2022/10/23 04:04:22;;;;;;;29.03;20.20;;;13.30;99.90;;;;;;5109689;28;20214;-72
2022/10/23 04:06:49;;;;;;;34.97;21.13;;;13.40;99.90;;;;;;5108480;28;20730;-72
2022/10/23 04:09:15;;;;;;;34.70;22.53;;;13.40;99.90;;;;;;5109620;28;20210;-72
2022/10/23 04:11:43;;;;;;;28.60;20.30;;;13.40;99.90;;;;;;5110437;28;20671;-72
2022/10/23 04:14:12;;;;;;;34.20;20.77;;;13.40;99.90;;;;;;5111240;27;20204;-72
2022/10/23 04:16:39;;;;;;;33.53;20.63;;;13.40;99.90;;;;;;5113244;28;20623;-72
2022/10/23 04:19:06;;;;;;;27.23;19.70;;;13.40;99.90;;;;;;5113530;28;20221;-73
2022/10/23 04:21:32;;;;;;;27.67;19.93;;;13.40;99.90;;;;;;5114066;28;20639;-72
2022/10/23 04:23:59;;;;;;;29.20;20.13;;;13.40;99.90;;;;;;5114994;28;20603;-73
2022/10/23 04:26:26;;;;;;;30.80;20.10;;;13.40;99.90;;;;;;5115559;28;20575;-72
2022/10/23 04:28:54;;;;;;;35.43;21.67;;;13.40;99.90;;;;;;5114091;28;20215;-72
2022/10/23 04:31:21;;;;;;;32.77;20.10;;;13.40;99.90;;;;;;5111601;28;20227;-72
2022/10/23 04:33:48;;;;;;;27.20;18.20;;;13.30;99.90;;;;;;5111498;28;20207;-72
2022/10/23 04:36:14;;;;;;;32.53;19.77;;;13.40;99.90;;;;;;5109721;28;20215;-72
2022/10/23 04:38:41;;;;;;;30.73;19.57;;;13.30;99.90;;;;;;5112786;28;20230;-73
2022/10/23 04:41:08;;;;;;;31.23;19.50;;;13.30;99.90;;;;;;5109543;28;20614;-68
2022/10/23 04:43:35;;;;;;;30.83;19.50;;;13.30;99.90;;;;;;5114874;27;20203;-68
2022/10/23 04:46:03;;;;;;;30.60;19.57;;;13.30;99.90;;;;;;5112286;28;20207;-69
2022/10/23 04:48:30;;;;;;;30.20;20.53;;;13.30;99.90;;;;;;5114907;27;20610;-67
2022/10/23 04:50:58;;;;;;;29.97;20.33;;;13.30;99.90;;;;;;5113515;28;20716;-68
2022/10/23 04:53:25;;;;;;;30.03;20.23;;;13.30;99.90;;;;;;5106548;28;20706;-69
2022/10/23 04:55:52;;;;;;;32.00;20.10;;;13.30;99.90;;;;;;5113711;28;20204;-69
2022/10/23 04:58:20;;;;;;;31.27;19.47;;;13.30;99.90;;;;;;5110040;28;20209;-69
2022/10/23 05:00:47;;;;;;;32.70;19.30;;;13.20;99.90;;;;;;5112051;27;20208;-69
2022/10/23 05:03:16;;;;;;;31.93;20.47;;;13.20;99.90;;;;;;5119135;27;20573;-68
2022/10/23 05:05:43;;;;;;;35.20;19.70;;;13.20;99.90;;;;;;5110217;28;20235;-68
2022/10/23 05:08:10;;;;;;;29.93;19.47;;;13.20;99.90;;;;;;5112974;28;20215;-69
2022/10/23 05:10:38;;;;;;;30.37;18.63;;;13.20;99.90;;;;;;5107248;28;20235;-72
2022/10/23 05:13:05;;;;;;;29.97;19.67;;;13.10;99.90;;;;;;5106568;28;20219;-72
2022/10/23 05:15:31;;;;;;;26.63;18.43;;;13.10;99.90;;;;;;5113418;28;20204;-72
2022/10/23 05:18:02;;;;;;;27.77;18.97;;;13.10;99.90;;;;;;5111643;28;20196;-72
2022/10/23 05:20:35;;;;;;;31.07;19.03;;;13.10;99.90;;;;;;5108903;28;20200;-72
2022/10/23 05:23:02;;;;;;;35.40;19.33;;;13.10;99.90;;;;;;5113748;28;20232;-71
2022/10/23 05:25:30;;;;;;;27.17;17.73;;;13.10;99.90;;;;;;5113188;28;20204;-73
2022/10/23 05:27:57;;;;;;;31.93;17.47;;;13.10;99.90;;;;;;5112563;28;20200;-71
2022/10/23 05:30:24;;;;;;;28.77;18.70;;;13.00;99.90;;;;;;5112512;28;20215;-72
2022/10/23 05:32:50;;;;;;;27.07;18.37;;;13.00;99.90;;;;;;5113753;28;20544;-73
2022/10/23 05:35:21;;;;;;;27.53;18.47;;;13.00;99.90;;;;;;5110594;28;20195;-72
2022/10/23 05:37:52;;;;;;;30.67;19.37;;;13.00;99.90;;;;;;5111553;28;20210;-72
2022/10/23 05:40:19;;;;;;;29.27;18.90;;;13.00;99.90;;;;;;5112989;28;20211;-73
2022/10/23 05:42:46;;;;;;;30.60;18.33;;;13.00;99.90;;;;;;5110997;28;20680;-71
2022/10/23 05:45:12;;;;;;;32.50;20.17;;;13.00;99.90;;;;;;5113145;28;20208;-70
2022/10/23 05:47:39;;;;;;;31.37;19.37;;;13.00;99.90;;;;;;5109519;28;20211;-73
2022/10/23 05:50:06;;;;;;;31.37;19.40;;;12.90;99.90;;;;;;5110386;28;20203;-71
2022/10/23 05:52:33;;;;;;;35.23;19.40;;;12.90;99.90;;;;;;5111686;28;20227;-72
2022/10/23 05:55:01;;;;;;;32.17;20.30;;;12.90;99.90;;;;;;5111393;28;20260;-71
2022/10/23 05:57:28;;;;;;;33.17;20.20;;;12.90;99.90;;;;;;5113444;28;20207;-71
2022/10/23 05:59:55;;;;;;;33.10;21.00;;;12.90;99.90;;;;;;5110117;28;20200;-71
2022/10/23 06:02:21;;;;;;;32.13;21.03;;;12.90;99.90;;;;;;5111040;28;20204;-73
2022/10/23 06:04:48;;;;;;;30.37;20.67;;;12.90;99.90;;;;;;5110058;28;20204;-73
2022/10/23 06:07:15;;;;;;;34.90;22.37;;;12.90;99.90;;;;;;5109429;28;20210;-72
2022/10/23 06:09:42;;;;;;;32.30;20.33;;;12.90;99.90;;;;;;5111287;27;20711;-72
2022/10/23 06:12:10;;;;;;;31.40;21.10;;;12.90;99.90;;;;;;5112162;27;20235;-75
2022/10/23 06:14:37;;;;;;;32.07;20.53;;;12.90;99.90;;;;;;5112798;27;20208;-74
2022/10/23 06:17:03;;;;;;;30.13;21.20;;;12.80;99.90;;;;;;5112606;28;20235;-72
2022/10/23 06:19:30;;;;;;;33.97;21.85;;;12.90;99.90;;;;;;5113512;28;20928;-74
2022/10/23 06:21:57;;;;;;;28.70;20.17;;;12.80;99.90;;;;;;5110144;28;20196;-70
2022/10/23 06:24:24;;;;;;;31.60;19.40;;;12.80;99.90;;;;;;5108586;28;20215;-67
2022/10/23 06:26:51;;;;;;;33.67;23.48;;;12.80;99.90;;;;;;5106637;28;20461;-65
2022/10/23 06:29:19;;;;;;;33.37;19.27;;;12.80;99.90;;;;;;5104861;28;20196;-65
2022/10/23 06:31:45;;;;;;;33.63;18.63;;;12.80;99.90;;;;;;5107591;28;20224;-65
2022/10/23 06:34:12;;;;;;;25.27;16.43;;;12.80;99.90;;;;;;5110795;27;20215;-64
2022/10/23 06:36:39;;;;;;;26.53;15.43;;;12.80;99.90;;;;;;5110480;28;20211;-66
2022/10/23 06:39:07;;;;;;;29.83;15.93;;;12.90;99.90;;;;;;5106601;28;20265;-69
2022/10/23 06:41:34;;;;;;;27.70;16.63;;;12.90;99.90;;;;;;5106642;28;20228;-68
2022/10/23 06:44:01;;;;;;;24.23;16.07;;;12.90;99.90;;;;;;5104462;28;20203;-71
2022/10/23 06:46:31;;;;;;;27.30;18.13;;;13.00;99.90;;;;;;5108151;28;20446;-71
2022/10/23 06:48:58;;;;;;;29.27;15.80;;;13.10;99.90;;;;;;5102538;27;20288;-71
2022/10/23 06:51:28;;;;;;;23.07;15.90;;;13.30;99.90;;;;;;5108050;28;20230;-70
2022/10/23 06:53:56;;;;;;;22.13;16.00;;;13.30;99.90;;;;;;5109516;28;20199;-71
2022/10/23 06:56:24;;;;;;;26.20;15.30;;;13.30;99.90;;;;;;5106036;28;20207;-70
2022/10/23 06:58:51;;;;;;;25.80;15.23;;;13.40;99.90;;;;;;5107101;28;20295;-72
2022/10/23 07:01:17;;;;;;;25.30;16.30;;;13.40;99.90;;;;;;5106093;28;21450;-72
2022/10/23 07:03:47;;;;;;;25.57;17.57;;;13.50;99.90;;;;;;5108594;28;20199;-71
2022/10/23 07:06:14;;;;;;;30.42;16.90;;;13.40;99.90;;;;;;5109596;27;20447;-70
2022/10/23 07:08:41;;;;;;;28.80;16.27;;;13.40;99.90;;;;;;5111076;28;20222;-74
2022/10/23 07:11:10;;;;;;;23.63;15.23;;;13.30;99.90;;;;;;5109385;28;20273;-72
2022/10/23 07:13:38;;;;;;;23.67;14.97;;;13.40;99.90;;;;;;5109601;28;20219;-69
2022/10/23 07:16:13;;;;;;;24.97;15.20;;;13.40;99.90;;;;;;5100663;28;20200;-68
2022/10/23 07:18:40;;;;;;;27.10;16.53;;;13.40;99.90;;;;;;5108222;28;20247;-67
2022/10/23 07:21:08;;;;;;;25.53;16.10;;;13.40;99.90;;;;;;5109812;28;20552;-67
2022/10/23 07:23:35;;;;;;;22.80;15.13;;;13.40;99.90;;;;;;5112130;28;20691;-74
2022/10/23 07:26:09;;;;;;;27.53;15.83;;;13.50;99.90;;;;;;5109730;28;20208;-67
2022/10/23 07:28:36;;;;;;;26.13;16.83;;;13.50;99.90;;;;;;5107045;28;20204;-67
2022/10/23 07:31:03;;;;;;;28.70;17.13;;;13.50;99.90;;;;;;5105354;28;20211;-74
2022/10/23 07:33:30;;;;;;;29.77;17.03;;;13.50;99.90;;;;;;5108618;28;20242;-74
2022/10/23 07:35:59;;;;;;;26.37;16.17;;;13.50;99.90;;;;;;5110170;28;20196;-73
2022/10/23 07:38:27;;;;;;;27.17;17.33;;;13.50;99.90;;;;;;5105390;28;20557;-73
2022/10/23 07:40:56;;;;;;;31.33;17.23;;;13.60;99.90;;;;;;5108414;28;20290;-75
2022/10/23 07:43:24;;;;;;;26.00;17.70;;;13.70;99.90;;;;;;5109507;28;20835;-71
2022/10/23 07:45:51;;;;;;;27.57;18.20;;;13.70;99.90;;;;;;5108485;28;20203;-74
2022/10/23 07:48:19;;;;;;;24.60;17.37;;;13.70;99.90;;;;;;5110279;28;20207;-74
2022/10/23 07:50:47;;;;;;;21.80;15.20;;;13.70;99.90;;;;;;5111972;28;20252;-71
2022/10/23 07:53:17;;;;;;;22.90;15.97;;;13.80;99.90;;;;;;5104057;28;20280;-74
2022/10/23 07:55:52;;;;;;;21.87;15.47;;;13.80;99.90;;;;;;5108625;28;20596;-72
2022/10/23 07:58:19;;;;;;;29.33;17.67;;;13.90;99.90;;;;;;5109495;28;20218;-72
2022/10/23 08:00:51;;;;;;;24.40;16.60;;;14.00;99.90;;;;;;5108901;28;20212;-72
2022/10/23 08:03:19;;;;;;;23.63;14.77;;;;;;;;;;5106434;27;20249;-71
2022/10/23 08:05:45;;;;;;;24.53;17.70;;;14.20;99.90;;;;;;5113369;28;20308;-72
2022/10/23 08:08:12;;;;;;;23.87;16.80;;;14.30;99.90;;;;;;5112212;28;20204;-71
2022/10/23 08:10:40;;;;;;;23.50;15.20;;;14.30;99.90;;;;;;5114145;27;20206;-71
2022/10/23 08:13:10;;;;;;;23.93;16.07;;;14.30;99.90;;;;;;5110166;28;20240;-72
2022/10/23 08:15:37;;;;;;;22.03;15.23;;;14.40;99.90;;;;;;5113583;28;20200;-71
2022/10/23 08:18:04;;;;;;;23.20;15.30;;;14.40;99.90;;;;;;5107346;28;20204;-71
2022/10/23 08:20:33;;;;;;;20.03;14.60;;;14.40;99.90;;;;;;5113615;28;20200;-72
2022/10/23 08:23:00;;;;;;;22.47;15.13;;;14.40;99.90;;;;;;5113333;28;20216;-71
2022/10/23 08:25:27;;;;;;;25.47;16.00;;;14.40;99.90;;;;;;5105467;28;20216;-72
2022/10/23 08:27:54;;;;;;;20.37;14.33;;;14.50;99.90;;;;;;5109303;28;20208;-71
2022/10/23 08:30:22;;;;;;;19.30;14.83;;;14.60;99.90;;;;;;5110628;28;20230;-72
2022/10/23 08:32:49;;;;;;;21.93;14.87;;;14.50;99.90;;;;;;5109374;28;20708;-70
2022/10/23 08:35:16;;;;;;;24.10;15.27;;;14.60;99.90;;;;;;5111046;28;21723;-72
2022/10/23 08:37:42;;;;;;;24.53;15.87;;;14.60;99.90;;;;;;5112356;27;20220;-71
2022/10/23 08:40:15;;;;;;;23.27;14.97;;;14.60;99.90;;;;;;5112976;28;20196;-71
2022/10/23 08:42:43;;;;;;;26.33;15.90;;;14.60;99.90;;;;;;5110793;28;20196;-72
2022/10/23 08:45:27;;;;;;;21.70;14.03;;;14.60;99.90;;;;;;5112252;28;20227;-72
2022/10/23 08:47:58;;;;;;;20.43;14.93;;;14.70;99.90;;;;;;5111291;28;20291;-71
2022/10/23 08:50:28;;;;;;;23.23;15.00;;;14.70;99.90;;;;;;5112381;28;20203;-71
2022/10/23 08:53:00;;;;;;;24.83;15.17;;;14.80;99.90;;;;;;5111745;28;20227;-73
2022/10/23 08:55:33;;;;;;;20.67;15.47;;;14.80;99.90;;;;;;5113073;27;20226;-72
2022/10/23 08:58:03;;;;;;;21.40;14.60;;;14.90;99.90;;;;;;5103412;28;20195;-70
2022/10/23 09:00:32;;;;;;;21.30;15.57;;;14.90;99.90;;;;;;5111180;28;20574;-70
2022/10/23 09:03:02;;;;;;;29.30;18.10;;;15.00;99.90;;;;;;5103110;28;20645;-71
2022/10/23 09:05:34;;;;;;;25.03;17.00;;;15.00;99.90;;;;;;5110081;28;20244;-71
2022/10/23 09:08:15;;;;;;;29.97;17.10;;;15.10;99.90;;;;;;5111973;28;20594;-71
2022/10/23 09:10:58;;;;;;;23.33;15.83;;;15.10;99.90;;;;;;5110939;28;20203;-72
2022/10/23 09:13:47;;;;;;;23.60;15.30;;;15.20;99.90;;;;;;5106521;28;20710;-71
2022/10/23 09:16:24;;;;;;;24.47;16.70;;;15.20;99.90;;;;;;5111944;28;20196;-70
2022/10/23 09:18:55;;;;;;;23.50;16.07;;;15.30;99.90;;;;;;5110500;28;20568;-71
2022/10/23 09:21:27;;;;;;;22.07;15.77;;;15.30;99.90;;;;;;5113476;28;20484;-71
2022/10/23 09:23:53;;;;;;;21.37;15.90;;;15.30;99.90;;;;;;5113461;28;20243;-71
2022/10/23 09:26:20;;;;;;;24.20;16.57;;;15.40;99.90;;;;;;5113334;28;20628;-71
2022/10/23 09:28:50;;;;;;;23.03;15.47;;;15.50;99.90;;;;;;5111597;27;20219;-71
2022/10/23 09:31:19;;;;;;;21.93;15.53;;;15.50;99.90;;;;;;5112579;28;20207;-71
2022/10/23 09:33:57;;;;;;;23.80;15.32;;;15.70;99.90;;;;;;5113513;28;20227;-71
2022/10/23 09:36:27;;;;;;;21.07;14.67;;;15.70;99.90;;;;;;5112496;28;20207;-70
2022/10/23 09:38:57;;;;;;;20.20;14.60;;;15.70;99.90;;;;;;5113924;28;20207;-72
2022/10/23 09:41:28;;;;;;;25.43;15.00;;;15.70;99.90;;;;;;5112942;27;20212;-72
2022/10/23 09:44:11;;;;;;;24.47;15.20;;;15.70;99.90;;;;;;5113647;28;20191;-72
2022/10/23 09:46:41;;;;;;;20.20;14.52;;;15.70;99.90;;;;;;5114447;27;20208;-70
2022/10/23 09:49:17;;;;;;;22.83;15.07;;;15.70;99.90;;;;;;5112923;28;20216;-71
2022/10/23 09:51:59;;;;;;;21.53;13.40;;;15.60;99.90;;;;;;5110456;28;20636;-71
2022/10/23 09:54:26;;;;;;;23.23;13.30;;;15.70;99.90;;;;;;5109985;28;20283;-70
2022/10/23 09:56:55;;;;;;;16.93;12.70;;;15.70;99.90;;;;;;5113078;28;20227;-72
2022/10/23 09:59:25;;;;;;;18.23;12.07;;;15.80;99.90;;;;;;5108341;28;20208;-71
2022/10/23 10:01:56;;;;;;;19.60;12.30;;;15.90;99.90;;;;;;5113060;27;20264;-71
2022/10/23 10:04:33;;;;;;;15.93;11.57;;;16.10;99.90;;;;;;5113151;28;20208;-71
2022/10/23 10:07:03;;;;;;;19.07;13.50;;;16.20;99.90;;;;;;5113033;28;20231;-72
2022/10/23 10:09:29;;;;;;;19.80;13.23;;;16.30;99.90;;;;;;5112791;28;20214;-72
2022/10/23 10:12:06;;;;;;;19.20;12.83;;;16.30;99.90;;;;;;5112185;28;20211;-71
2022/10/23 10:14:51;;;;;;;17.63;12.20;;;16.30;99.90;;;;;;5114281;28;20211;-72
2022/10/23 10:17:30;;;;;;;21.25;13.18;;;16.30;99.90;;;;;;5109352;28;20611;-71
2022/10/23 10:20:22;;;;;;;18.93;12.97;;;16.30;99.90;;;;;;5113939;28;20674;-70
2022/10/23 10:22:54;;;;;;;15.23;12.60;;;16.30;99.90;;;;;;5111567;28;20220;-71
2022/10/23 10:25:28;;;;;;;17.90;13.40;;;16.20;99.90;;;;;;5111302;28;20203;-70
2022/10/23 10:28:08;;;;;;;15.47;12.13;;;16.30;99.90;;;;;;5110156;28;20196;-71
2022/10/23 10:30:41;;;;;;;18.60;13.77;;;16.00;99.90;;;;;;5113217;28;20207;-71
2022/10/23 10:33:21;;;;;;;22.07;14.03;;;16.00;99.90;;;;;;5112221;28;20294;-70
2022/10/23 10:35:59;;;;;;;18.27;12.33;;;16.00;99.90;;;;;;5112460;27;20206;-71
2022/10/23 10:38:39;;;;;;;15.13;12.10;;;15.90;99.90;;;;;;5098600;28;20200;-71
2022/10/23 10:41:39;;;;;;;22.37;12.23;;;15.90;99.90;;;;;;5111432;28;20196;-71
2022/10/23 10:44:46;;;;;;;17.00;12.17;;;15.90;99.90;;;;;;5113572;28;20234;-71
2022/10/23 10:47:21;;;;;;;16.50;11.67;;;15.90;99.90;;;;;;5107208;27;20290;-71
2022/10/23 10:49:58;;;;;;;18.73;11.00;;;15.80;99.90;;;;;;5112259;27;20203;-71
2022/10/23 10:52:33;;;;;;;17.73;11.30;;;15.90;99.90;;;;;;5099946;28;20269;-70
2022/10/23 10:55:08;;;;;;;15.37;9.97;;;15.90;99.90;;;;;;5111900;28;20230;-72
2022/10/23 10:57:40;;;;;;;13.67;10.47;;;15.90;99.90;;;;;;5111617;28;20204;-71
2022/10/23 11:00:15;;;;;;;14.83;11.07;;;15.90;99.90;;;;;;5111659;28;20211;-70
2022/10/23 11:02:45;;;;;;;14.20;10.23;;;16.00;99.90;;;;;;5110685;28;20229;-70
2022/10/23 11:05:27;;;;;;;15.47;9.60;;;16.00;99.90;;;;;;5111098;28;20241;-72
2022/10/23 11:07:58;;;;;;;11.90;9.27;;;16.00;99.90;;;;;;5111401;28;20211;-71
2022/10/23 11:10:26;;;;;;;15.13;10.47;;;15.90;99.90;;;;;;5111973;28;20214;-72
2022/10/23 11:12:53;;;;;;;14.70;9.87;;;16.00;99.90;;;;;;5110201;28;20227;-72
2022/10/23 11:15:25;;;;;;;14.70;9.53;;;15.90;99.90;;;;;;5113126;28;20211;-71
2022/10/23 11:17:56;;;;;;;13.10;10.33;;;15.80;99.90;;;;;;5103972;28;20207;-71
2022/10/23 11:20:45;;;;;;;17.57;9.60;;;15.80;99.90;;;;;;5111545;28;20215;-70
2022/10/23 11:23:32;;;;;;;11.23;9.10;;;15.70;99.90;;;;;;5110453;28;20755;-71
2022/10/23 11:26:12;;;;;;;12.53;9.70;;;15.70;99.90;;;;;;5112850;27;20295;-70
2022/10/23 11:29:03;;;;;;;16.13;10.23;;;15.60;99.90;;;;;;5112659;28;20219;-70
2022/10/23 11:31:38;;;;;;;17.80;10.17;;;15.70;99.90;;;;;;5110679;28;20212;-70
2022/10/23 11:34:53;;;;;;;16.38;10.68;;;15.70;99.90;;;;;;5111757;28;20220;-72
2022/10/23 11:37:23;;;;;;;13.55;10.27;;;15.70;99.90;;;;;;5061746;28;20201;-71
2022/10/23 11:40:04;;;;;;;12.23;10.25;;;15.70;99.90;;;;;;5068576;28;20205;-71
2022/10/23 11:42:44;;;;;;;13.18;9.63;;;15.80;99.90;;;;;;5090549;28;20210;-70
2022/10/23 11:45:31;;;;;;;13.20;9.98;;;15.80;99.90;;;;;;5104089;28;20564;-70
2022/10/23 11:47:59;;;;;;;13.00;10.23;;;15.80;99.90;;;;;;5112235;28;20219;-71
2022/10/23 11:50:29;;;;;;;12.25;9.10;;;15.90;99.90;;;;;;5109595;28;20569;-71
2022/10/23 11:53:22;;;;;;;12.23;10.27;;;15.90;99.90;;;;;;5111835;28;20218;-71
2022/10/23 11:55:58;;;;;;;12.88;9.25;;;15.90;99.90;;;;;;5110263;28;20675;-71
2022/10/23 11:58:30;;;;;;;16.00;10.40;;;16.10;99.90;;;;;;5110377;28;20199;-71
2022/10/23 12:01:02;;;;;;;14.65;10.88;;;16.00;99.90;;;;;;5112221;28;20199;-71
2022/10/23 12:03:39;;;;;;;15.18;9.88;;;16.00;99.90;;;;;;5114909;28;20200;-72
2022/10/23 12:06:07;;;;;;;13.10;9.82;;;16.00;99.90;;;;;;5105482;28;20246;-71
2022/10/23 12:08:40;;;;;;;13.90;10.30;;;16.10;99.90;;;;;;5110996;28;20211;-70
2022/10/23 12:11:26;;;;;;;12.52;10.25;;;16.20;99.90;;;;;;5110427;28;20200;-70
2022/10/23 12:13:53;;;;;;;12.23;9.98;;;16.30;99.90;;;;;;5110296;28;20230;-71
2022/10/23 12:16:19;;;;;;;12.27;10.18;;;16.40;99.90;;;;;;5109270;28;20257;-70
2022/10/23 12:18:49;;;;;;;13.20;10.32;;;16.40;99.90;;;;;;5115654;28;20652;-72
2022/10/23 12:21:20;;;;;;;10.73;9.63;;;16.50;99.90;;;;;;5109976;28;20200;-70
2022/10/23 12:24:03;;;;;;;14.48;10.40;;;16.50;99.90;;;;;;5106415;28;20228;-71
2022/10/23 12:26:55;;;;;;;11.85;9.63;;;16.50;99.90;;;;;;5096483;28;20200;-71
2022/10/23 12:29:35;;;;;;;12.43;10.27;;;16.50;99.90;;;;;;5081371;28;20643;-70
2022/10/23 12:32:12;;;;;;;14.10;10.43;;;16.50;99.90;;;;;;5109883;28;20200;-71
2022/10/23 12:34:47;;;;;;;12.30;9.02;;;16.60;99.90;;;;;;5112289;28;20543;-70
2022/10/23 12:37:35;;;;;;;12.38;10.00;;;16.60;99.90;;;;;;5113169;28;20219;-71
2022/10/23 12:40:08;;;;;;;13.45;9.52;;;16.60;99.90;;;;;;5114033;28;20216;-71
2022/10/23 12:42:36;;;;;;;11.63;9.33;;;16.60;99.90;;;;;;5113412;28;20204;-71
2022/10/23 12:45:15;;;;;;;11.52;9.48;;;16.60;99.90;;;;;;5114941;28;20196;-70
2022/10/23 12:47:44;;;;;;;12.45;10.07;;;16.60;99.90;;;;;;5114723;28;20196;-71